Swan River, Canada
Current Conditions -  °F | °C
As of 10:00 PM on Tuesday 21 Oct 2014 (Local Time) from CYQV Reporting Station
Clear Clear  
Wind Chill: 52°   Ceiling: Unl
Heat Index: 52°   Visibility: 9mi
Dew Point: 41°   Wind: 10mph
Humidity: 67%   Direction: 150°SSE
Pressure: 29.61"   Gusts: NA
Location:  52.11°N, 101.25°W
Report Text: CYQV 220300Z AUTO 15009KT 9SM CLR 11/05 A2961 RMK SLP040 DENSITY ALT 1800FT
Loading
Personal Weather Stations






























Interactive Weather Map
Tropical Storm Tracking
New forecast layout! Learn more

10-Day Weather Forecast

Advertisements
Track Severe Weather on mobile